SCO905P EGPH-EGPN

Flight info

Callsign SCO905P
Flight time N/A
Altitude 11000
Route GRICE
Aircraft AT46/M-SDFGIRY/S

Departure

Time 2026-04-24 01:06
Airport Edinburgh Airport (EGPH)

Arrival

Time N/A
Airport Dundee Airport (EGPN)
Time Latitude Longitude Altitude Speed Heading
2026-04-24 00:53 55.94978 -3.36234 109 ft 0 kts 116°
2026-04-24 01:00 55.94980 -3.36240 109 ft 3 kts 116°
2026-04-24 01:01 55.94988 -3.36270 107 ft 3 kts 116°
2026-04-24 01:01 55.94997 -3.36300 107 ft 3 kts 116°
2026-04-24 01:01 55.95004 -3.36328 108 ft 2 kts 116°
2026-04-24 01:01 55.95011 -3.36352 109 ft 2 kts 116°
2026-04-24 01:02 55.95009 -3.36345 109 ft 0 kts 117°
2026-04-24 01:02 55.95003 -3.36324 108 ft 1 kts 117°
2026-04-24 01:02 55.95002 -3.36321 107 ft 0 kts 117°
2026-04-24 01:03 55.95000 -3.36316 107 ft 1 kts 146°
2026-04-24 01:03 55.94989 -3.36345 107 ft 11 kts 256°
2026-04-24 01:03 55.94950 -3.36587 108 ft 19 kts 242°
2026-04-24 01:03 55.94910 -3.36709 109 ft 0 kts 237°
2026-04-24 01:04 55.94918 -3.36828 107 ft 21 kts 299°
2026-04-24 01:04 55.94888 -3.37012 108 ft 18 kts 237°
2026-04-24 01:04 55.94826 -3.37183 109 ft 16 kts 241°
2026-04-24 01:04 55.94771 -3.37351 109 ft 15 kts 239°
2026-04-24 01:05 55.94716 -3.37513 109 ft 15 kts 237°
2026-04-24 01:05 55.94662 -3.37670 110 ft 15 kts 239°
2026-04-24 01:05 55.94610 -3.37827 109 ft 15 kts 239°
2026-04-24 01:05 55.94626 -3.37989 109 ft 16 kts 328°
2026-04-24 01:06 55.94691 -3.38051 111 ft 15 kts 349°
2026-04-24 01:06 55.94907 -3.37526 108 ft 102 kts 58°
2026-04-24 01:06 55.95359 -3.36359 801 ft 113 kts 57°
2026-04-24 01:06 55.95959 -3.35123 1529 ft 148 kts 47°
2026-04-24 01:07 55.96776 -3.33926 2342 ft 166 kts 30°
2026-04-24 01:07 55.97900 -3.33490 3373 ft 158 kts
2026-04-24 01:07 55.99044 -3.33615 4212 ft 168 kts 351°
2026-04-24 01:07 56.00201 -3.34188 4908 ft 185 kts 335°
2026-04-24 01:08 56.01305 -3.35442 5720 ft 181 kts 319°
2026-04-24 01:08 56.02186 -3.37093 6307 ft 197 kts 307°
2026-04-24 01:08 56.02918 -3.39194 6955 ft 195 kts 295°
2026-04-24 01:08 56.03657 -3.41295 7454 ft 201 kts 301°
2026-04-24 01:09 56.04114 -3.43405 8693 ft 173 kts 277°
2026-04-24 01:09 56.04224 -3.45645 9050 ft 199 kts 287°
2026-04-24 01:09 56.05088 -3.47809 9074 ft 227 kts 310°
2026-04-24 01:09 56.06185 -3.49923 9117 ft 228 kts 312°
2026-04-24 01:10 56.07579 -3.52480 8990 ft 204 kts 313°
2026-04-24 01:10 56.08226 -3.53663 8927 ft 197 kts 312°
2026-04-24 01:10 56.08908 -3.55676 8805 ft 188 kts 282°
2026-04-24 01:10 56.08713 -3.57971 8382 ft 189 kts 244°
2026-04-24 01:11 56.08112 -3.59963 7938 ft 176 kts 240°
2026-04-24 01:11 56.07506 -3.61817 7493 ft 171 kts 241°
2026-04-24 01:11 56.07357 -3.63879 7009 ft 173 kts 284°
2026-04-24 01:11 56.08123 -3.65497 6492 ft 177 kts 331°
2026-04-24 01:12 56.09344 -3.65958 5760 ft 184 kts 354°
2026-04-24 01:12 56.10636 -3.66172 5007 ft 188 kts 356°
2026-04-24 01:12 56.11962 -3.66271 4225 ft 195 kts
2026-04-24 01:12 56.13332 -3.66221 3475 ft 198 kts 360°
2026-04-24 01:13 56.14712 -3.66290 2735 ft 196 kts 354°
2026-04-24 01:13 56.16002 -3.66749 2339 ft 181 kts 347°
2026-04-24 01:13 56.17166 -3.67280 2161 ft 164 kts 345°
2026-04-24 01:13 56.18208 -3.67787 2079 ft 147 kts 345°
2026-04-24 01:14 56.19104 -3.68237 2183 ft 89 kts 345°